Time;durP1;ratioP1;P1;durP2;ratioP2;P2;SDS_P1;SDS_P2;PMS_P1;PMS_P2;Temp;Humidity;BMP_temperature;BMP_pressure;BME280_temperature;BME280_humidity;BME280_pressure;Samples;Min_cycle;Max_cycle;Signal;HPM_P1;HPM_P2
2022/07/16 00:01:22;;;;;;;2.00;0.93;;;;;;;14.09;73.00;100733.03;5094813;28;20465;-49
2022/07/16 00:01:50;;;;;;;5.57;1.23;;;;;;;14.19;72.99;100738.94;5094934;28;20453;-50
2022/07/16 00:04:16;;;;;;;6.83;1.13;;;;;;;14.27;72.87;100741.34;5094808;28;20440;-50
2022/07/16 00:06:44;;;;;;;1.50;1.30;;;;;;;14.30;71.95;100738.56;5083145;28;20993;-49
2022/07/16 00:09:11;;;;;;;0.70;0.60;;;;;;;14.18;73.12;100743.41;5092515;28;20556;-50
2022/07/16 00:11:38;;;;;;;40.67;1.40;;;;;;;14.21;73.26;100750.44;5086621;28;20449;-49
2022/07/16 00:14:05;;;;;;;7.23;1.30;;;;;;;14.11;73.14;100754.38;5094834;28;20460;-49
2022/07/16 00:16:31;;;;;;;0.93;0.60;;;;;;;14.21;73.18;100754.00;5094179;28;20452;-49
2022/07/16 00:19:16;;;;;;;1.20;1.10;;;;;;;14.08;73.48;100749.16;5094508;28;20472;-49
2022/07/16 00:21:43;;;;;;;1.07;0.97;;;;;;;13.99;74.34;100742.34;5080773;28;20444;-49
2022/07/16 00:24:11;;;;;;;0.67;0.67;;;;;;;14.02;74.11;100747.56;5094800;28;20441;-49
2022/07/16 00:26:38;;;;;;;7.70;1.33;;;;;;;13.97;74.37;100741.50;5080791;28;20446;-51
2022/07/16 00:29:04;;;;;;;13.13;1.30;;;;;;;13.80;75.49;100739.44;5094085;28;20494;-49
2022/07/16 00:31:31;;;;;;;1.60;1.17;;;;;;;13.85;75.03;100745.50;5091864;28;20511;-48
2022/07/16 00:33:58;;;;;;;1.63;0.90;;;;;;;13.73;75.12;100747.72;5094516;28;20518;-49
2022/07/16 00:36:24;;;;;;;5.07;1.30;;;;;;;13.73;74.84;100743.25;5080713;28;20449;-48
2022/07/16 00:38:51;;;;;;;8.63;0.90;;;;;;;13.64;75.65;100738.22;5094451;28;20467;-48
2022/07/16 00:41:17;;;;;;;3.70;0.70;;;;;;;13.50;76.31;100740.47;5090998;28;20449;-49
2022/07/16 00:43:58;;;;;;;0.90;0.70;;;;;;;13.42;76.94;100738.03;5094267;28;20445;-48
2022/07/16 00:46:25;;;;;;;1.00;0.77;;;;;;;13.52;76.37;100746.63;5093897;28;20965;-50
2022/07/16 00:48:51;;;;;;;0.93;0.87;;;;;;;13.46;76.54;100733.50;5094176;28;20489;-49
2022/07/16 00:51:18;;;;;;;1.67;0.87;;;;;;;13.52;76.15;100742.16;5093870;28;20788;-49
2022/07/16 00:53:45;;;;;;;1.90;0.57;;;;;;;13.43;76.47;100741.59;5093843;28;20453;-48
2022/07/16 00:56:13;;;;;;;1.80;1.00;;;;;;;13.24;77.68;100733.31;5093704;28;20891;-49
2022/07/16 00:58:42;;;;;;;7.40;1.27;;;;;;;13.17;78.03;100740.63;5093988;28;20461;-49
2022/07/16 01:01:09;;;;;;;1.00;1.00;;;;;;;13.05;77.54;100739.22;5093882;28;20441;-50
2022/07/16 01:03:36;;;;;;;1.30;0.90;;;;;;;13.05;78.11;100735.69;5094121;28;20449;-48
2022/07/16 01:06:06;;;;;;;0.60;0.50;;;;;;;13.11;77.08;100734.59;5093858;28;20453;-48
2022/07/16 01:08:34;;;;;;;1.10;1.00;;;;;;;13.39;76.28;100732.81;5093231;28;20575;-49
2022/07/16 01:11:02;;;;;;;1.57;1.47;;;;;;;13.33;76.66;100730.34;5084030;28;20461;-49
2022/07/16 01:13:29;;;;;;;3.97;0.77;;;;;;;13.26;77.00;100732.34;5093994;28;20449;-49
2022/07/16 01:15:55;;;;;;;13.77;1.67;;;;;;;13.24;77.97;100739.53;5073589;28;20504;-49
2022/07/16 01:18:22;;;;;;;1.20;1.10;;;;;;;13.16;78.54;100738.00;5073218;28;20466;-49
2022/07/16 01:20:49;;;;;;;1.20;1.10;;;;;;;13.14;78.30;100739.81;5073288;28;20454;-48
2022/07/16 01:23:20;;;;;;;1.17;1.03;;;;;;;13.10;78.41;100732.84;5073448;28;20450;-49
2022/07/16 01:25:46;;;;;;;1.33;1.20;;;;;;;13.12;78.21;100733.66;5085178;28;20441;-49
2022/07/16 01:28:14;;;;;;;1.40;1.17;;;;;;;12.68;79.74;100727.91;5087931;28;20492;-49
2022/07/16 01:30:41;;;;;;;1.07;0.90;;;;;;;12.73;79.73;100729.53;5093171;28;20457;-49
2022/07/16 01:33:28;;;;;;;1.97;1.77;;;;;;;12.80;79.12;100734.69;5089896;28;20465;-49
2022/07/16 01:36:00;;;;;;;5.80;1.00;;;;;;;12.79;79.39;100731.16;5093018;28;20973;-49
2022/07/16 01:38:28;;;;;;;0.77;0.77;;;;;;;12.71;79.54;100731.38;5093105;28;20471;-49
2022/07/16 01:40:55;;;;;;;8.37;1.27;;;;;;;12.59;79.28;100733.53;5091403;28;20486;-50
2022/07/16 01:43:26;;;;;;;6.70;3.10;;;;;;;12.69;79.78;100727.88;5092739;28;20453;-49
2022/07/16 01:45:54;;;;;;;0.63;0.63;;;;;;;12.76;79.08;100728.56;5093076;28;20520;-49
2022/07/16 01:48:22;;;;;;;1.27;1.17;;;;;;;12.65;79.07;100733.34;5092554;28;20491;-49
2022/07/16 01:50:49;;;;;;;11.40;1.53;;;;;;;12.79;79.57;100730.28;5092958;28;20453;-49
2022/07/16 01:53:16;;;;;;;0.83;0.70;;;;;;;12.68;79.61;100730.59;5093150;28;20899;-49
2022/07/16 01:55:43;;;;;;;3.57;3.27;;;;;;;12.55;80.19;100729.22;5092677;28;20789;-49
2022/07/16 01:58:11;;;;;;;2.60;1.10;;;;;;;12.57;80.23;100722.91;5092727;28;20825;-49
2022/07/16 02:00:39;;;;;;;1.77;1.67;;;;;;;12.55;79.83;100723.88;5092751;28;20445;-49
2022/07/16 02:03:07;;;;;;;2.00;0.80;;;;;;;12.71;80.09;100719.81;5091369;28;20921;-49
2022/07/16 02:05:35;;;;;;;3.23;1.57;;;;;;;12.90;78.38;100720.16;5092715;28;20852;-48
2022/07/16 02:08:03;;;;;;;2.30;1.17;;;;;;;12.52;80.54;100723.97;5092645;28;21035;-51
2022/07/16 02:10:30;;;;;;;1.33;1.13;;;;;;;12.53;80.37;100723.91;5083804;28;20453;-49
2022/07/16 02:12:56;;;;;;;1.33;1.23;;;;;;;12.59;80.16;100721.06;5092842;28;20489;-48
2022/07/16 02:15:23;;;;;;;7.90;1.33;;;;;;;12.42;81.12;100721.56;5092180;28;20938;-49
2022/07/16 02:17:49;;;;;;;1.33;1.23;;;;;;;12.43;81.16;100727.78;5092385;28;20540;-49
2022/07/16 02:20:16;;;;;;;22.87;1.63;;;;;;;12.60;79.96;100728.13;5092175;28;20930;-48
2022/07/16 02:22:42;;;;;;;8.43;1.10;;;;;;;12.39;80.74;100726.13;5092517;28;20449;-49
2022/07/16 02:25:10;;;;;;;3.60;1.07;;;;;;;12.52;80.84;100731.97;5089243;28;20442;-49
2022/07/16 02:27:36;;;;;;;0.80;0.80;;;;;;;12.18;81.21;100724.94;5082087;28;20487;-48
2022/07/16 02:30:04;;;;;;;5.40;1.30;;;;;;;12.14;82.07;100729.47;5091994;28;20488;-49
2022/07/16 02:32:30;;;;;;;0.70;0.50;;;;;;;12.11;82.45;100731.38;5090442;28;20950;-49
2022/07/16 02:34:57;;;;;;;1.10;1.10;;;;;;;12.08;83.07;100731.44;5092009;28;20852;-49
2022/07/16 02:37:23;;;;;;;1.50;1.00;;;;;;;12.08;82.61;100721.66;5092238;28;20445;-49
2022/07/16 02:39:50;;;;;;;0.80;0.70;;;;;;;12.06;83.24;100726.16;5089693;28;20451;-49
2022/07/16 02:42:16;;;;;;;0.80;0.70;;;;;;;12.23;82.72;100731.03;5092061;28;20467;-49
2022/07/16 02:44:43;;;;;;;1.03;1.03;;;;;;;12.18;82.80;100722.25;5091749;28;20449;-50
2022/07/16 02:47:09;;;;;;;1.27;1.17;;;;;;;12.32;83.24;100725.41;5092160;28;20444;-49
2022/07/16 02:49:36;;;;;;;2.70;0.70;;;;;;;12.21;82.68;100729.31;5092606;28;20484;-50
2022/07/16 02:52:02;;;;;;;1.77;0.80;;;;;;;12.20;82.98;100736.44;5092085;28;20455;-49
2022/07/16 02:54:29;;;;;;;0.63;0.60;;;;;;;12.24;82.49;100729.22;5091960;28;20453;-49
2022/07/16 02:56:55;;;;;;;1.47;1.03;;;;;;;12.32;82.48;100740.53;5092132;28;20449;-48
2022/07/16 02:59:21;;;;;;;0.80;0.70;;;;;;;11.95;83.28;100736.25;5078703;28;20465;-48
2022/07/16 03:01:48;;;;;;;12.63;1.50;;;;;;;12.01;83.77;100729.84;5091929;28;20445;-49
2022/07/16 03:04:14;;;;;;;3.53;1.00;;;;;;;12.01;83.03;100733.41;5091895;28;20445;-49
2022/07/16 03:06:41;;;;;;;1.40;1.30;;;;;;;11.83;83.80;100737.44;5091864;28;20487;-49
2022/07/16 03:09:07;;;;;;;1.23;1.13;;;;;;;11.90;83.29;100735.47;5091631;28;20488;-49
2022/07/16 03:11:34;;;;;;;0.90;0.90;;;;;;;11.93;83.70;100735.41;5071925;28;20450;-49
2022/07/16 03:14:00;;;;;;;0.67;0.60;;;;;;;11.81;84.63;100741.06;5071919;28;20449;-49
2022/07/16 03:16:27;;;;;;;1.63;1.53;;;;;;;11.85;84.29;100738.25;5071775;28;20452;-49
2022/07/16 03:18:53;;;;;;;3.73;0.60;;;;;;;11.99;83.54;100743.22;5071360;28;20465;-48
2022/07/16 03:21:20;;;;;;;16.03;1.70;;;;;;;12.05;83.40;100739.50;5071933;28;20446;-49
2022/07/16 03:23:46;;;;;;;1.30;1.20;;;;;;;11.81;84.19;100747.25;5076495;28;20441;-49
2022/07/16 03:26:12;;;;;;;1.50;1.40;;;;;;;11.87;84.83;100743.56;5079591;28;20822;-49
2022/07/16 03:28:39;;;;;;;1.20;1.10;;;;;;;11.73;84.96;100748.34;5090160;28;20503;-49
2022/07/16 03:31:05;;;;;;;1.00;1.00;;;;;;;11.96;84.17;100750.44;5090855;28;20465;-49
2022/07/16 03:33:32;;;;;;;1.07;0.93;;;;;;;11.83;84.64;100755.22;5089967;28;20459;-48
2022/07/16 03:35:59;;;;;;;11.87;1.30;;;;;;;11.66;84.67;100747.63;5091618;28;20472;-48
2022/07/16 03:41:10;;;;;;;1.50;1.40;;;;;;;11.65;84.93;100748.53;5089021;28;20536;-49
2022/07/16 03:43:37;;;;;;;0.67;0.60;;;;;;;11.77;84.55;100742.88;5091571;28;20445;-49
2022/07/16 03:46:04;;;;;;;0.60;0.40;;;;;;;11.84;84.45;100746.31;5091672;28;20448;-49
2022/07/16 03:48:30;;;;;;;1.53;1.20;;;;;;;12.01;84.44;100749.38;5091479;28;20499;-49
2022/07/16 03:50:57;;;;;;;0.80;0.80;;;;;;;11.77;84.38;100750.00;5091753;28;20532;-49
2022/07/16 03:53:23;;;;;;;1.80;1.07;;;;;;;11.93;85.07;100751.41;5091166;28;20459;-49
2022/07/16 03:55:50;;;;;;;1.97;1.20;;;;;;;12.10;83.83;100754.47;5093653;28;20445;-48
2022/07/16 03:58:16;;;;;;;0.83;0.60;;;;;;;11.96;84.84;100753.09;5095168;28;20510;-49
2022/07/16 04:00:42;;;;;;;1.10;1.00;;;;;;;11.89;84.85;100749.72;5095014;28;20441;-49
2022/07/16 04:03:09;;;;;;;2.70;1.07;;;;;;;11.85;85.00;100751.59;5095170;28;20449;-49
2022/07/16 04:05:36;;;;;;;0.97;0.80;;;;;;;11.96;84.57;100764.63;5094916;28;20452;-50
2022/07/16 04:08:02;;;;;;;1.47;1.37;;;;;;;12.01;84.52;100760.03;5094676;28;20559;-49
2022/07/16 04:10:29;;;;;;;1.17;1.07;;;;;;;11.93;84.81;100756.72;5085800;28;20520;-49
2022/07/16 04:12:55;;;;;;;1.20;1.00;;;;;;;12.14;84.21;100755.25;5094966;28;20448;-49
2022/07/16 04:15:22;;;;;;;1.20;0.93;;;;;;;12.19;83.84;100763.09;5094871;28;20453;-49
2022/07/16 04:17:48;;;;;;;1.03;0.93;;;;;;;12.03;84.82;100763.53;5094817;28;20840;-49
2022/07/16 04:20:15;;;;;;;0.80;0.80;;;;;;;12.16;84.87;100764.94;5094975;28;20452;-49
2022/07/16 04:22:41;;;;;;;2.10;1.30;;;;;;;12.23;84.58;100756.81;5094783;28;20701;-49
2022/07/16 04:25:08;;;;;;;1.40;0.60;;;;;;;12.11;86.12;100764.22;5091749;28;20441;-48
2022/07/16 04:27:37;;;;;;;1.70;1.60;;;;;;;12.26;85.47;100759.38;5084039;28;20990;-48
2022/07/16 04:30:05;;;;;;;1.10;1.00;;;;;;;12.44;85.19;100753.50;5094135;28;20492;-49
2022/07/16 04:32:31;;;;;;;0.70;0.70;;;;;;;12.51;84.69;100749.75;5092210;28;20947;-49
2022/07/16 04:34:58;;;;;;;2.53;2.33;;;;;;;12.73;84.38;100744.66;5093992;28;20456;-48
2022/07/16 04:37:25;;;;;;;2.20;0.83;;;;;;;12.75;84.12;100742.84;5094198;28;20459;-49
2022/07/16 04:39:52;;;;;;;1.17;1.07;;;;;;;12.93;83.93;100742.25;5091460;28;20451;-49
2022/07/16 04:42:19;;;;;;;2.20;1.47;;;;;;;13.52;81.65;100746.63;5094300;28;20467;-49
2022/07/16 04:44:45;;;;;;;1.17;1.07;;;;;;;14.51;77.35;100741.31;5094260;28;20459;-50
2022/07/16 04:47:12;;;;;;;2.30;1.33;;;;;;;15.34;74.30;100743.44;5093941;28;20468;-49
2022/07/16 04:49:38;;;;;;;2.07;1.67;;;;;;;16.31;70.39;100749.16;5093931;28;20960;-49
2022/07/16 04:52:05;;;;;;;1.77;1.67;;;;;;;16.87;68.99;100757.31;5094333;28;20475;-49
2022/07/16 04:54:32;;;;;;;1.13;0.97;;;;;;;16.90;67.20;100758.97;5093751;28;20934;-49
2022/07/16 04:56:59;;;;;;;3.57;1.17;;;;;;;17.27;65.87;100760.78;5093737;28;20449;-50
2022/07/16 04:59:26;;;;;;;6.47;1.90;;;;;;;17.24;65.68;100765.41;5094192;28;20515;-49
2022/07/16 05:01:52;;;;;;;1.73;1.50;;;;;;;17.38;65.53;100769.16;5093786;28;20449;-49
2022/07/16 05:04:19;;;;;;;1.23;0.70;;;;;;;17.82;64.90;100767.91;5093526;28;20541;-50
2022/07/16 05:06:45;;;;;;;6.53;1.90;;;;;;;18.23;62.46;100772.06;5093531;28;20958;-49
2022/07/16 05:09:12;;;;;;;1.17;1.07;;;;;;;19.25;58.57;100768.28;5092524;28;21020;-50
2022/07/16 05:11:38;;;;;;;0.80;0.80;;;;;;;19.29;58.86;100777.94;5073406;28;20456;-50
2022/07/16 05:14:05;;;;;;;5.00;2.83;;;;;;;19.29;58.10;100782.44;5092351;28;20453;-49
2022/07/16 05:16:31;;;;;;;1.60;0.90;;;;;;;19.61;57.74;100786.06;5093576;28;20445;-50
2022/07/16 05:18:58;;;;;;;0.77;0.63;;;;;;;19.41;57.73;100792.53;5093555;28;20476;-50
2022/07/16 05:21:24;;;;;;;0.80;0.73;;;;;;;19.60;57.66;100793.28;5093363;28;20449;-49
2022/07/16 05:23:51;;;;;;;14.00;1.03;;;;;;;19.54;57.67;100796.28;5093118;28;20812;-51
2022/07/16 05:26:17;;;;;;;20.80;1.07;;;;;;;19.44;58.16;100795.91;5081547;28;20446;-49
2022/07/16 05:28:43;;;;;;;4.83;0.97;;;;;;;19.69;57.64;100787.31;5091892;28;20487;-49
2022/07/16 05:31:10;;;;;;;0.90;0.70;;;;;;;19.64;57.07;100788.56;5091923;28;20496;-50
2022/07/16 05:33:36;;;;;;;1.00;0.90;;;;;;;19.65;57.41;100798.38;5092658;28;20445;-49
2022/07/16 05:36:03;;;;;;;1.30;0.80;;;;;;;19.47;58.31;100794.91;5093421;28;20449;-49
2022/07/16 05:38:30;;;;;;;0.70;0.70;;;;;;;19.67;56.70;100800.03;5092955;28;20823;-48
2022/07/16 05:40:56;;;;;;;3.00;1.10;;;;;;;19.90;56.20;100804.09;5090670;28;20451;-48
2022/07/16 05:43:23;;;;;;;3.77;1.10;;;;;;;20.02;56.25;100799.81;5093195;28;20449;-49
2022/07/16 05:45:49;;;;;;;1.03;0.93;;;;;;;20.38;55.52;100804.78;5092816;28;20441;-49
2022/07/16 05:48:16;;;;;;;5.93;0.90;;;;;;;20.47;55.42;100803.41;5092904;28;20465;-49
2022/07/16 05:50:42;;;;;;;4.30;1.37;;;;;;;20.48;54.14;100805.13;5092565;28;20567;-49
2022/07/16 05:53:09;;;;;;;0.70;0.50;;;;;;;20.27;54.81;100805.44;5092771;28;20468;-48
2022/07/16 05:55:35;;;;;;;0.83;0.80;;;;;;;20.03;55.87;100801.53;5092858;28;20825;-49
2022/07/16 05:58:02;;;;;;;0.90;0.80;;;;;;;20.18;55.98;100800.63;5092535;28;21005;-48
2022/07/16 06:00:28;;;;;;;4.33;0.80;;;;;;;20.23;55.36;100797.63;5092565;28;20457;-49
2022/07/16 06:02:55;;;;;;;1.07;0.97;;;;;;;20.81;54.13;100794.91;5091217;28;20448;-48
2022/07/16 06:05:22;;;;;;;1.50;1.20;;;;;;;20.58;54.34;100799.09;5092612;28;20488;-49
2022/07/16 06:07:48;;;;;;;4.17;1.20;;;;;;;20.67;54.39;100798.50;5092346;28;20475;-48
2022/07/16 06:10:15;;;;;;;1.53;1.33;;;;;;;20.74;54.53;100790.88;5083167;28;20509;-49
2022/07/16 06:12:41;;;;;;;2.10;1.33;;;;;;;21.33;52.87;100790.75;5092375;28;20965;-49
2022/07/16 06:15:10;;;;;;;1.00;0.80;;;;;;;21.77;51.83;100791.38;5092569;28;20448;-49
2022/07/16 06:17:38;;;;;;;2.17;1.60;;;;;;;21.65;51.41;100800.31;5091880;28;20989;-49
2022/07/16 06:20:06;;;;;;;1.53;1.03;;;;;;;20.61;54.17;100803.44;5092487;28;20448;-49
2022/07/16 06:22:33;;;;;;;2.70;0.60;;;;;;;21.59;52.42;100804.31;5091980;28;20445;-49
2022/07/16 06:24:59;;;;;;;3.20;1.00;;;;;;;21.89;51.54;100805.94;5091046;28;20441;-49
2022/07/16 06:27:26;;;;;;;0.80;0.70;;;;;;;22.14;50.88;100813.28;5080604;28;20455;-49
2022/07/16 06:29:52;;;;;;;0.93;0.90;;;;;;;22.06;50.83;100812.94;5092126;28;20492;-49
2022/07/16 06:32:19;;;;;;;6.23;1.07;;;;;;;21.93;50.75;100812.91;5090489;28;20449;-49
2022/07/16 06:34:45;;;;;;;1.00;0.87;;;;;;;21.78;51.63;100812.06;5079412;28;20454;-49
2022/07/16 06:37:12;;;;;;;4.63;1.10;;;;;;;21.88;51.57;100815.91;5083511;28;20450;-50
2022/07/16 06:39:40;;;;;;;5.80;0.93;;;;;;;21.86;51.46;100809.72;5085239;28;20541;-49
2022/07/16 06:42:07;;;;;;;0.80;0.80;;;;;;;21.91;50.53;100814.81;5092010;28;20449;-49
2022/07/16 06:44:33;;;;;;;3.77;1.57;;;;;;;21.92;50.52;100818.38;5092126;28;20445;-50
2022/07/16 06:47:00;;;;;;;3.70;2.30;;;;;;;22.23;50.81;100818.09;5092266;28;20456;-49
2022/07/16 06:49:26;;;;;;;1.60;1.50;;;;;;;21.88;52.11;100815.91;5092085;28;20468;-50
2022/07/16 06:51:53;;;;;;;0.87;0.80;;;;;;;22.42;50.15;100813.13;5092243;28;20456;-49
2022/07/16 06:54:19;;;;;;;0.70;0.70;;;;;;;22.03;51.25;100811.28;5092101;28;20457;-50
2022/07/16 06:56:45;;;;;;;2.93;0.80;;;;;;;22.06;50.57;100804.81;5091947;28;20448;-50
2022/07/16 06:59:16;;;;;;;4.93;1.20;;;;;;;22.69;50.45;100799.47;5092044;28;20460;-49
2022/07/16 07:01:42;;;;;;;2.77;1.00;;;;;;;22.64;49.40;100795.38;5091957;28;20448;-49
2022/07/16 07:04:09;;;;;;;3.00;1.20;;;;;;;23.03;49.12;100786.28;5091941;28;20451;-49
2022/07/16 07:06:36;;;;;;;0.70;0.60;;;;;;;22.97;48.23;100797.53;5092461;28;20532;-49
2022/07/16 07:09:02;;;;;;;1.03;0.80;;;;;;;22.70;48.59;100805.78;5091743;28;20465;-49
2022/07/16 07:11:29;;;;;;;2.10;0.70;;;;;;;22.83;49.42;100806.66;5083059;28;20485;-50
2022/07/16 07:13:55;;;;;;;0.80;0.80;;;;;;;22.66;49.22;100813.25;5092656;28;20825;-50
2022/07/16 07:16:22;;;;;;;0.80;0.77;;;;;;;22.67;49.34;100808.72;5092360;28;20456;-49
2022/07/16 07:18:49;;;;;;;1.63;1.30;;;;;;;23.17;48.21;100805.13;5092146;28;20465;-49
2022/07/16 07:21:16;;;;;;;3.23;0.80;;;;;;;23.19;47.52;100803.16;5091978;28;20464;-49
2022/07/16 07:23:42;;;;;;;1.97;0.80;;;;;;;23.24;47.85;100798.25;5091301;28;20448;-50
2022/07/16 07:26:09;;;;;;;0.90;0.60;;;;;;;23.28;48.02;100796.16;5080685;28;20472;-51
2022/07/16 07:28:36;;;;;;;0.70;0.60;;;;;;;23.74;47.29;100807.25;5089699;28;20469;-49
2022/07/16 07:31:03;;;;;;;0.93;0.60;;;;;;;23.28;47.10;100809.72;5094333;28;20492;-49
2022/07/16 07:33:29;;;;;;;1.00;0.87;;;;;;;23.15;48.10;100803.47;5075481;28;20571;-49
2022/07/16 07:35:56;;;;;;;0.87;0.87;;;;;;;23.15;48.10;100803.47;5075285;28;20453;-50
2022/07/16 07:38:22;;;;;;;0.70;0.40;;;;;;;22.70;49.23;100801.22;5075242;28;20472;-49
2022/07/16 07:40:49;;;;;;;1.17;1.03;;;;;;;22.98;48.48;100802.84;5075329;28;20446;-49
2022/07/16 07:43:16;;;;;;;0.60;0.40;;;;;;;23.32;47.13;100804.00;5075178;28;20449;-49
2022/07/16 07:45:43;;;;;;;10.57;0.70;;;;;;;23.57;46.27;100797.66;5075350;28;20477;-49
2022/07/16 07:48:09;;;;;;;0.60;0.60;;;;;;;23.77;46.38;100801.56;5074616;28;20472;-50
2022/07/16 07:50:36;;;;;;;1.53;1.33;;;;;;;23.66;47.02;100795.22;5074829;28;20490;-49
2022/07/16 07:53:03;;;;;;;1.10;0.83;;;;;;;23.72;45.93;100797.50;5076443;28;20540;-48
2022/07/16 07:55:30;;;;;;;10.63;1.30;;;;;;;24.03;46.12;100799.59;5075092;28;20449;-48
2022/07/16 07:57:57;;;;;;;0.70;0.70;;;;;;;24.04;45.02;100800.47;5074822;28;20472;-49
2022/07/16 08:00:24;;;;;;;1.90;0.60;;;;;;;23.91;45.48;100787.81;5075034;28;20821;-49
2022/07/16 08:02:51;;;;;;;0.63;0.57;;;;;;;24.06;44.86;100803.91;5075095;28;20454;-49
2022/07/16 08:05:18;;;;;;;10.03;1.50;;;;;;;24.15;44.34;100803.22;5075176;28;20515;-50
2022/07/16 08:07:44;;;;;;;1.43;0.83;;;;;;;24.78;44.71;100799.19;5074763;28;21037;-49
2022/07/16 08:10:12;;;;;;;0.60;0.40;;;;;;;24.53;42.74;100797.53;5074790;28;20492;-49
2022/07/16 08:12:39;;;;;;;5.80;2.00;;;;;;;24.67;43.17;100796.44;5074785;28;20446;-51
2022/07/16 08:15:07;;;;;;;2.47;1.57;;;;;;;24.98;42.00;100794.88;5074730;28;20456;-49
2022/07/16 08:17:37;;;;;;;0.50;0.40;;;;;;;25.52;40.58;100797.69;5081508;28;20548;-49
2022/07/16 08:20:06;;;;;;;4.00;0.57;;;;;;;25.46;41.01;100802.75;5094439;28;20441;-49
2022/07/16 08:22:32;;;;;;;1.10;0.70;;;;;;;25.43;39.67;100798.44;5094737;28;20459;-49
2022/07/16 08:27:44;;;;;;;1.37;0.77;;;;;;;24.88;41.43;100796.59;5085257;28;20464;-49
2022/07/16 08:30:10;;;;;;;1.93;0.80;;;;;;;25.59;40.75;100793.44;5094080;28;20489;-49
2022/07/16 08:32:37;;;;;;;0.87;0.87;;;;;;;25.26;41.44;100788.94;5092296;28;20463;-50
2022/07/16 08:35:04;;;;;;;1.10;0.70;;;;;;;25.09;42.02;100797.63;5094445;28;20453;-49
2022/07/16 08:37:35;;;;;;;0.57;0.50;;;;;;;25.38;41.76;100787.94;5094452;28;20469;-49
2022/07/16 08:40:05;;;;;;;0.80;0.50;;;;;;;24.96;41.59;100785.97;5091900;28;20452;-49
2022/07/16 08:42:33;;;;;;;1.30;1.00;;;;;;;24.99;41.99;100786.59;5093536;28;20669;-49
2022/07/16 08:45:01;;;;;;;0.80;0.77;;;;;;;25.38;41.98;100792.53;5094170;28;20793;-49
2022/07/16 08:47:30;;;;;;;5.23;0.70;;;;;;;25.64;41.25;100791.22;5094240;28;20461;-49
2022/07/16 08:49:59;;;;;;;1.17;0.60;;;;;;;25.62;41.61;100781.44;5095055;28;20840;-52
2022/07/16 08:52:28;;;;;;;1.30;0.70;;;;;;;25.96;40.65;100787.66;5094198;28;20453;-52
2022/07/16 08:54:56;;;;;;;3.97;0.77;;;;;;;25.88;40.28;100784.72;5093960;28;20445;-52
2022/07/16 08:57:25;;;;;;;1.10;0.80;;;;;;;25.51;41.26;100779.63;5093514;28;20960;-52
2022/07/16 08:59:53;;;;;;;22.63;0.80;;;;;;;26.01;40.72;100784.53;5094181;28;20445;-52
2022/07/16 09:02:20;;;;;;;0.73;0.60;;;;;;;26.26;40.29;100770.53;5093759;28;20449;-53
2022/07/16 09:04:46;;;;;;;1.90;1.30;;;;;;;26.39;40.04;100778.56;5093678;28;20826;-52
2022/07/16 09:07:14;;;;;;;1.13;1.03;;;;;;;25.99;40.61;100771.06;5093857;28;20456;-53
2022/07/16 09:09:41;;;;;;;0.90;0.70;;;;;;;25.87;39.96;100778.41;5089075;28;20450;-53
2022/07/16 09:12:08;;;;;;;4.10;0.70;;;;;;;25.87;40.25;100770.22;5090291;28;20489;-53
2022/07/16 09:14:34;;;;;;;1.00;0.80;;;;;;;26.23;40.36;100771.69;5093532;28;20529;-52
2022/07/16 09:17:01;;;;;;;0.80;0.70;;;;;;;26.01;40.15;100771.78;5090215;28;20460;-53
2022/07/16 09:19:29;;;;;;;1.00;0.63;;;;;;;25.71;40.35;100766.22;5083445;28;21037;-53
2022/07/16 09:22:04;;;;;;;0.63;0.60;;;;;;;25.73;40.65;100778.72;5093502;28;20445;-53
2022/07/16 09:24:34;;;;;;;1.10;0.63;;;;;;;25.81;40.20;100776.22;5093309;28;21097;-53
2022/07/16 09:27:11;;;;;;;0.80;0.80;;;;;;;26.22;40.56;100771.81;5075155;28;20449;-53
2022/07/16 09:29:48;;;;;;;1.70;0.87;;;;;;;25.81;40.23;100778.94;5086519;28;20437;-54
2022/07/16 09:32:29;;;;;;;0.80;0.60;;;;;;;25.57;40.83;100776.38;5091716;28;20495;-52
2022/07/16 09:35:11;;;;;;;0.67;0.47;;;;;;;25.78;40.99;100775.63;5092893;28;20518;-53
2022/07/16 09:37:55;;;;;;;0.70;0.60;;;;;;;25.97;41.00;100782.09;5092388;28;20461;-53
2022/07/16 09:40:34;;;;;;;1.00;0.70;;;;;;;26.44;40.52;100779.00;5091476;28;20432;-53
2022/07/16 09:43:15;;;;;;;0.83;0.60;;;;;;;27.07;38.71;100774.34;5093156;28;20455;-54
2022/07/16 09:45:48;;;;;;;0.70;0.53;;;;;;;27.32;38.36;100776.59;5093282;28;20441;-53
2022/07/16 09:48:25;;;;;;;11.17;1.13;;;;;;;27.13;38.00;100777.38;5092874;28;20465;-53
2022/07/16 09:50:55;;;;;;;0.60;0.50;;;;;;;26.81;38.90;100772.03;5092925;28;20966;-53
2022/07/16 09:53:25;;;;;;;2.90;0.87;;;;;;;26.68;38.20;100784.19;5092516;28;20964;-53
2022/07/16 09:56:04;;;;;;;3.20;1.07;;;;;;;26.40;38.81;100783.88;5092712;28;20437;-54
2022/07/16 09:58:31;;;;;;;0.73;0.63;;;;;;;26.57;40.30;100775.06;5092919;28;20472;-54
2022/07/16 10:00:59;;;;;;;1.27;0.73;;;;;;;26.89;38.67;100778.69;5092409;28;20952;-53
2022/07/16 10:03:27;;;;;;;0.60;0.50;;;;;;;26.68;39.27;100779.59;5092798;28;20481;-53
2022/07/16 10:05:54;;;;;;;3.27;1.10;;;;;;;26.75;38.02;100788.09;5092537;28;20457;-53
2022/07/16 10:08:21;;;;;;;1.60;0.80;;;;;;;27.24;37.63;100789.19;5092709;28;20471;-53
2022/07/16 10:10:48;;;;;;;1.13;0.70;;;;;;;26.70;38.55;100780.31;5083346;28;20495;-54
2022/07/16 10:13:17;;;;;;;1.43;1.10;;;;;;;26.09;38.97;100777.44;5092531;28;20491;-53
2022/07/16 10:15:46;;;;;;;0.60;0.53;;;;;;;26.27;39.20;100784.03;5092471;28;20453;-52
2022/07/16 10:18:39;;;;;;;1.43;0.50;;;;;;;25.96;39.32;100782.22;5092599;28;20475;-53
2022/07/16 10:21:20;;;;;;;2.90;0.73;;;;;;;26.10;39.63;100778.31;5092486;28;20888;-53
2022/07/16 10:24:07;;;;;;;17.03;0.73;;;;;;;26.33;39.52;100782.66;5092311;28;20469;-52
2022/07/16 10:26:35;;;;;;;0.70;0.60;;;;;;;26.07;39.01;100782.19;5078757;28;20450;-53
2022/07/16 10:29:03;;;;;;;0.93;0.53;;;;;;;26.23;39.48;100774.41;5092279;28;20843;-53
2022/07/16 10:32:27;;;;;;;0.77;0.60;;;;;;;26.98;38.05;100780.59;5090342;28;20895;-53
2022/07/16 10:34:41;;;;;;;0.83;0.80;;;;;;;27.09;38.94;100780.53;5092034;28;20494;-53
2022/07/16 10:37:26;;;;;;;1.90;1.37;;;;;;;27.52;37.36;100784.81;5092159;28;20452;-53
2022/07/16 10:40:12;;;;;;;1.00;0.70;;;;;;;27.14;36.76;100778.25;5090571;28;20445;-53
2022/07/16 10:42:39;;;;;;;0.67;0.67;;;;;;;27.35;37.28;100794.56;5090671;28;20956;-52
2022/07/16 10:45:06;;;;;;;0.53;0.43;;;;;;;26.79;37.76;100784.97;5092140;28;20482;-53
2022/07/16 10:47:47;;;;;;;4.00;0.90;;;;;;;27.36;36.76;100799.00;5092175;28;20522;-53
2022/07/16 10:50:17;;;;;;;19.83;1.00;;;;;;;27.19;36.65;100795.06;5092283;28;20445;-53
2022/07/16 10:52:46;;;;;;;1.73;1.03;;;;;;;27.37;36.58;100795.28;5091995;28;20452;-53
2022/07/16 10:55:31;;;;;;;0.80;0.73;;;;;;;27.56;35.54;100795.34;5092334;28;20452;-52
2022/07/16 10:57:58;;;;;;;21.20;1.33;;;;;;;26.40;36.88;100788.47;5091649;28;20464;-53
2022/07/16 11:00:25;;;;;;;2.30;1.17;;;;;;;26.44;37.81;100779.88;5091926;28;20445;-53
2022/07/16 11:02:58;;;;;;;1.10;0.90;;;;;;;26.91;37.25;100795.78;5092162;28;20957;-53
2022/07/16 11:05:42;;;;;;;0.70;0.60;;;;;;;27.83;35.81;100793.81;5095870;28;20445;-53
2022/07/16 11:08:11;;;;;;;1.47;0.80;;;;;;;28.15;34.61;100796.25;5095915;28;20464;-53
2022/07/16 11:10:40;;;;;;;1.03;0.77;;;;;;;27.80;35.16;100791.34;5088048;28;20553;-53
2022/07/16 11:13:12;;;;;;;1.33;0.60;;;;;;;27.57;35.76;100788.00;5088967;28;20458;-54
2022/07/16 11:15:38;;;;;;;0.80;0.60;;;;;;;27.84;35.23;100781.88;5082715;28;20527;-54
2022/07/16 11:18:15;;;;;;;1.13;1.07;;;;;;;27.72;35.53;100789.34;5096572;28;20476;-53
2022/07/16 11:20:43;;;;;;;0.97;0.80;;;;;;;27.88;35.44;100789.66;5095871;28;20444;-52
2022/07/16 11:23:11;;;;;;;6.90;1.13;;;;;;;28.02;35.00;100783.75;5095555;28;20475;-53
2022/07/16 11:25:53;;;;;;;1.03;0.60;;;;;;;27.97;35.89;100794.25;5082536;28;20527;-52
2022/07/16 11:28:19;;;;;;;6.43;1.00;;;;;;;27.54;35.56;100796.44;5095735;28;20858;-52
2022/07/16 11:31:06;;;;;;;4.30;1.20;;;;;;;27.71;35.26;100796.69;5095652;28;20489;-52
2022/07/16 11:33:49;;;;;;;0.70;0.50;;;;;;;27.74;35.81;100795.53;5096079;28;20456;-53